sensor_id;sensor_type;location;lat;lon;timestamp;temperature;humidity
7192;DHT22;3637;51.494;11.958;2022-11-27T00:02:12;5.10;99.90
7192;DHT22;3637;51.494;11.958;2022-11-27T00:05:15;4.40;99.90
7192;DHT22;3637;51.494;11.958;2022-11-27T00:08:17;4.60;99.90
7192;DHT22;3637;51.494;11.958;2022-11-27T00:11:21;4.50;99.90
7192;DHT22;3637;51.494;11.958;2022-11-27T00:14:23;4.90;99.90
7192;DHT22;3637;51.494;11.958;2022-11-27T00:17:25;5.20;99.90
7192;DHT22;3637;51.494;11.958;2022-11-27T00:20:28;4.40;99.90
7192;DHT22;3637;51.494;11.958;2022-11-27T00:23:31;4.70;99.90
7192;DHT22;3637;51.494;11.958;2022-11-27T00:26:34;4.30;99.90
7192;DHT22;3637;51.494;11.958;2022-11-27T00:29:36;4.40;99.90
7192;DHT22;3637;51.494;11.958;2022-11-27T00:32:38;4.60;99.90
7192;DHT22;3637;51.494;11.958;2022-11-27T00:35:41;4.30;99.90
7192;DHT22;3637;51.494;11.958;2022-11-27T00:38:43;4.30;99.90
7192;DHT22;3637;51.494;11.958;2022-11-27T00:41:45;4.30;99.90
7192;DHT22;3637;51.494;11.958;2022-11-27T00:44:47;4.20;99.90
7192;DHT22;3637;51.494;11.958;2022-11-27T00:47:49;4.20;99.90
7192;DHT22;3637;51.494;11.958;2022-11-27T00:50:57;4.30;99.90
7192;DHT22;3637;51.494;11.958;2022-11-27T00:53:59;4.50;99.90
7192;DHT22;3637;51.494;11.958;2022-11-27T00:57:01;4.80;99.90
7192;DHT22;3637;51.494;11.958;2022-11-27T01:00:04;4.20;99.90
7192;DHT22;3637;51.494;11.958;2022-11-27T01:03:06;4.10;99.90
7192;DHT22;3637;51.494;11.958;2022-11-27T01:06:10;4.20;99.90
7192;DHT22;3637;51.494;11.958;2022-11-27T01:09:12;5.50;99.90
7192;DHT22;3637;51.494;11.958;2022-11-27T01:12:14;4.10;99.90
7192;DHT22;3637;51.494;11.958;2022-11-27T01:15:16;4.10;99.90
7192;DHT22;3637;51.494;11.958;2022-11-27T01:18:18;4.20;99.90
7192;DHT22;3637;51.494;11.958;2022-11-27T01:21:22;4.50;99.90
7192;DHT22;3637;51.494;11.958;2022-11-27T01:24:23;4.40;99.90
7192;DHT22;3637;51.494;11.958;2022-11-27T01:27:25;4.50;99.90
7192;DHT22;3637;51.494;11.958;2022-11-27T01:30:27;3.70;99.90
7192;DHT22;3637;51.494;11.958;2022-11-27T01:33:29;4.80;99.90
7192;DHT22;3637;51.494;11.958;2022-11-27T01:36:33;4.60;99.90
7192;DHT22;3637;51.494;11.958;2022-11-27T01:39:35;4.40;99.90
7192;DHT22;3637;51.494;11.958;2022-11-27T01:42:37;5.10;99.90
7192;DHT22;3637;51.494;11.958;2022-11-27T01:45:39;3.80;99.90
7192;DHT22;3637;51.494;11.958;2022-11-27T01:48:41;4.80;99.90
7192;DHT22;3637;51.494;11.958;2022-11-27T01:51:46;3.90;99.90
7192;DHT22;3637;51.494;11.958;2022-11-27T01:54:54;3.90;99.90
7192;DHT22;3637;51.494;11.958;2022-11-27T01:57:59;3.80;99.90
7192;DHT22;3637;51.494;11.958;2022-11-27T02:01:01;3.80;99.90
7192;DHT22;3637;51.494;11.958;2022-11-27T02:04:03;3.80;99.90
7192;DHT22;3637;51.494;11.958;2022-11-27T02:07:07;3.90;99.90
7192;DHT22;3637;51.494;11.958;2022-11-27T02:10:09;3.90;99.90
7192;DHT22;3637;51.494;11.958;2022-11-27T02:13:13;3.90;99.90
7192;DHT22;3637;51.494;11.958;2022-11-27T02:16:27;4.00;99.90
7192;DHT22;3637;51.494;11.958;2022-11-27T02:19:49;4.00;99.90
7192;DHT22;3637;51.494;11.958;2022-11-27T02:27:10;4.00;99.90
7192;DHT22;3637;51.494;11.958;2022-11-27T02:30:14;4.10;99.90
7192;DHT22;3637;51.494;11.958;2022-11-27T02:33:19;4.00;99.90
7192;DHT22;3637;51.494;11.958;2022-11-27T02:36:23;3.90;99.90
7192;DHT22;3637;51.494;11.958;2022-11-27T02:39:31;4.00;99.90
7192;DHT22;3637;51.494;11.958;2022-11-27T02:42:36;4.00;99.90
7192;DHT22;3637;51.494;11.958;2022-11-27T02:45:43;3.70;99.90
7192;DHT22;3637;51.494;11.958;2022-11-27T02:48:48;4.40;99.90
7192;DHT22;3637;51.494;11.958;2022-11-27T02:51:53;3.80;99.90
7192;DHT22;3637;51.494;11.958;2022-11-27T02:54:58;3.70;99.90
7192;DHT22;3637;51.494;11.958;2022-11-27T02:58:02;3.70;99.90
7192;DHT22;3637;51.494;11.958;2022-11-27T03:01:09;3.80;99.90
7192;DHT22;3637;51.494;11.958;2022-11-27T03:04:15;3.70;99.90
7192;DHT22;3637;51.494;11.958;2022-11-27T03:07:22;4.10;99.90
7192;DHT22;3637;51.494;11.958;2022-11-27T03:10:29;3.70;99.90
7192;DHT22;3637;51.494;11.958;2022-11-27T03:13:35;4.20;99.90
7192;DHT22;3637;51.494;11.958;2022-11-27T03:16:42;3.60;99.90
7192;DHT22;3637;51.494;11.958;2022-11-27T03:19:50;3.90;99.90
7192;DHT22;3637;51.494;11.958;2022-11-27T03:22:54;4.70;99.90
7192;DHT22;3637;51.494;11.958;2022-11-27T03:25:56;3.50;99.90
7192;DHT22;3637;51.494;11.958;2022-11-27T03:28:59;3.60;99.90
7192;DHT22;3637;51.494;11.958;2022-11-27T03:32:05;4.10;99.90
7192;DHT22;3637;51.494;11.958;2022-11-27T03:35:09;4.20;99.90
7192;DHT22;3637;51.494;11.958;2022-11-27T03:38:11;4.60;99.90
7192;DHT22;3637;51.494;11.958;2022-11-27T03:41:18;3.90;99.90
7192;DHT22;3637;51.494;11.958;2022-11-27T03:44:28;3.40;99.90
7192;DHT22;3637;51.494;11.958;2022-11-27T03:47:43;3.40;99.90
7192;DHT22;3637;51.494;11.958;2022-11-27T03:50:53;3.40;99.90
7192;DHT22;3637;51.494;11.958;2022-11-27T03:54:03;3.40;99.90
7192;DHT22;3637;51.494;11.958;2022-11-27T03:57:12;3.40;99.90
7192;DHT22;3637;51.494;11.958;2022-11-27T04:00:16;3.50;99.90
7192;DHT22;3637;51.494;11.958;2022-11-27T04:03:24;3.40;99.90
7192;DHT22;3637;51.494;11.958;2022-11-27T04:06:27;3.40;99.90
7192;DHT22;3637;51.494;11.958;2022-11-27T04:09:29;3.40;99.90
7192;DHT22;3637;51.494;11.958;2022-11-27T04:12:31;3.40;99.90
7192;DHT22;3637;51.494;11.958;2022-11-27T04:15:33;3.30;99.90
7192;DHT22;3637;51.494;11.958;2022-11-27T04:18:36;3.30;99.90
7192;DHT22;3637;51.494;11.958;2022-11-27T04:21:38;3.30;99.90
7192;DHT22;3637;51.494;11.958;2022-11-27T04:24:40;3.20;99.90
7192;DHT22;3637;51.494;11.958;2022-11-27T04:27:41;3.80;99.90
7192;DHT22;3637;51.494;11.958;2022-11-27T04:30:44;3.20;99.90
7192;DHT22;3637;51.494;11.958;2022-11-27T04:33:47;3.70;99.90
7192;DHT22;3637;51.494;11.958;2022-11-27T04:36:49;3.30;99.90
7192;DHT22;3637;51.494;11.958;2022-11-27T04:39:51;3.10;99.90
7192;DHT22;3637;51.494;11.958;2022-11-27T04:42:52;3.20;99.90
7192;DHT22;3637;51.494;11.958;2022-11-27T04:45:54;3.10;99.90
7192;DHT22;3637;51.494;11.958;2022-11-27T04:48:57;3.10;99.90
7192;DHT22;3637;51.494;11.958;2022-11-27T04:51:59;3.00;99.90
7192;DHT22;3637;51.494;11.958;2022-11-27T04:55:01;3.00;99.90
7192;DHT22;3637;51.494;11.958;2022-11-27T04:58:03;3.20;99.90
7192;DHT22;3637;51.494;11.958;2022-11-27T05:01:07;3.30;99.90
7192;DHT22;3637;51.494;11.958;2022-11-27T05:04:10;3.80;99.90
7192;DHT22;3637;51.494;11.958;2022-11-27T05:07:12;4.00;99.90
7192;DHT22;3637;51.494;11.958;2022-11-27T05:10:14;2.90;99.90
7192;DHT22;3637;51.494;11.958;2022-11-27T05:13:16;3.00;99.90
7192;DHT22;3637;51.494;11.958;2022-11-27T05:16:18;3.00;99.90
7192;DHT22;3637;51.494;11.958;2022-11-27T05:19:23;3.00;99.90
7192;DHT22;3637;51.494;11.958;2022-11-27T05:22:29;3.00;99.90
7192;DHT22;3637;51.494;11.958;2022-11-27T05:25:31;3.50;99.90
7192;DHT22;3637;51.494;11.958;2022-11-27T05:28:33;3.00;99.90
7192;DHT22;3637;51.494;11.958;2022-11-27T05:31:35;2.90;99.90
7192;DHT22;3637;51.494;11.958;2022-11-27T05:34:39;3.30;99.90
7192;DHT22;3637;51.494;11.958;2022-11-27T05:37:40;2.80;99.90
7192;DHT22;3637;51.494;11.958;2022-11-27T05:40:43;2.80;99.90
7192;DHT22;3637;51.494;11.958;2022-11-27T05:43:45;2.70;99.90
7192;DHT22;3637;51.494;11.958;2022-11-27T05:46:47;2.70;99.90
7192;DHT22;3637;51.494;11.958;2022-11-27T05:49:50;2.80;99.90
7192;DHT22;3637;51.494;11.958;2022-11-27T05:52:52;2.80;99.90
7192;DHT22;3637;51.494;11.958;2022-11-27T05:55:59;2.80;99.90
7192;DHT22;3637;51.494;11.958;2022-11-27T05:59:01;3.10;99.90
7192;DHT22;3637;51.494;11.958;2022-11-27T06:02:03;3.10;99.90
7192;DHT22;3637;51.494;11.958;2022-11-27T06:05:07;2.80;99.90
7192;DHT22;3637;51.494;11.958;2022-11-27T06:08:09;2.80;99.90
7192;DHT22;3637;51.494;11.958;2022-11-27T06:11:12;2.80;99.90
7192;DHT22;3637;51.494;11.958;2022-11-27T06:14:15;2.80;99.90
7192;DHT22;3637;51.494;11.958;2022-11-27T06:17:16;2.90;99.90
7192;DHT22;3637;51.494;11.958;2022-11-27T06:20:20;2.90;99.90
7192;DHT22;3637;51.494;11.958;2022-11-27T06:23:23;2.90;99.90
7192;DHT22;3637;51.494;11.958;2022-11-27T06:26:29;3.20;99.90
7192;DHT22;3637;51.494;11.958;2022-11-27T06:29:31;2.90;99.90
7192;DHT22;3637;51.494;11.958;2022-11-27T06:32:33;3.00;99.90
7192;DHT22;3637;51.494;11.958;2022-11-27T06:35:37;2.80;99.90
7192;DHT22;3637;51.494;11.958;2022-11-27T06:38:38;3.20;99.90
7192;DHT22;3637;51.494;11.958;2022-11-27T06:41:40;2.80;99.90
7192;DHT22;3637;51.494;11.958;2022-11-27T06:44:43;2.90;99.90
7192;DHT22;3637;51.494;11.958;2022-11-27T06:47:45;3.00;99.90
7192;DHT22;3637;51.494;11.958;2022-11-27T06:50:48;2.90;99.90
7192;DHT22;3637;51.494;11.958;2022-11-27T06:53:51;3.00;99.90
7192;DHT22;3637;51.494;11.958;2022-11-27T06:56:53;3.00;99.90
7192;DHT22;3637;51.494;11.958;2022-11-27T06:59:55;3.10;99.90
7192;DHT22;3637;51.494;11.958;2022-11-27T07:02:57;3.10;99.90
7192;DHT22;3637;51.494;11.958;2022-11-27T07:06:01;3.10;99.90
7192;DHT22;3637;51.494;11.958;2022-11-27T07:09:04;3.20;99.90
7192;DHT22;3637;51.494;11.958;2022-11-27T07:12:06;3.30;99.90
7192;DHT22;3637;51.494;11.958;2022-11-27T07:15:09;3.30;99.90
7192;DHT22;3637;51.494;11.958;2022-11-27T07:18:10;3.30;99.90
7192;DHT22;3637;51.494;11.958;2022-11-27T07:21:14;3.30;99.90
7192;DHT22;3637;51.494;11.958;2022-11-27T07:24:16;3.30;99.90
7192;DHT22;3637;51.494;11.958;2022-11-27T07:27:18;3.50;99.90
7192;DHT22;3637;51.494;11.958;2022-11-27T07:30:20;3.20;99.90
7192;DHT22;3637;51.494;11.958;2022-11-27T07:33:22;3.10;99.90
7192;DHT22;3637;51.494;11.958;2022-11-27T07:36:27;3.10;99.90
7192;DHT22;3637;51.494;11.958;2022-11-27T07:39:29;3.10;99.90
7192;DHT22;3637;51.494;11.958;2022-11-27T07:42:31;3.10;99.90
7192;DHT22;3637;51.494;11.958;2022-11-27T07:45:33;3.20;99.90
7192;DHT22;3637;51.494;11.958;2022-11-27T07:48:35;3.20;99.90
7192;DHT22;3637;51.494;11.958;2022-11-27T07:51:38;3.30;99.90
7192;DHT22;3637;51.494;11.958;2022-11-27T07:54:40;3.40;99.90
7192;DHT22;3637;51.494;11.958;2022-11-27T07:57:42;3.40;99.90
7192;DHT22;3637;51.494;11.958;2022-11-27T08:00:44;3.50;99.90
7192;DHT22;3637;51.494;11.958;2022-11-27T08:03:45;3.60;99.90
7192;DHT22;3637;51.494;11.958;2022-11-27T08:06:49;3.60;99.90
7192;DHT22;3637;51.494;11.958;2022-11-27T08:09:51;3.60;99.90
7192;DHT22;3637;51.494;11.958;2022-11-27T08:12:52;3.80;99.90
7192;DHT22;3637;51.494;11.958;2022-11-27T08:15:57;3.80;99.90
7192;DHT22;3637;51.494;11.958;2022-11-27T08:19:00;3.90;99.90
7192;DHT22;3637;51.494;11.958;2022-11-27T08:22:03;4.00;99.90
7192;DHT22;3637;51.494;11.958;2022-11-27T08:25:07;4.80;99.90
7192;DHT22;3637;51.494;11.958;2022-11-27T08:28:09;4.20;99.90
7192;DHT22;3637;51.494;11.958;2022-11-27T08:31:13;4.30;99.90
7192;DHT22;3637;51.494;11.958;2022-11-27T08:34:15;4.30;99.90
7192;DHT22;3637;51.494;11.958;2022-11-27T08:37:18;4.40;99.90
7192;DHT22;3637;51.494;11.958;2022-11-27T08:40:21;4.50;99.90
7192;DHT22;3637;51.494;11.958;2022-11-27T08:43:23;5.20;99.90
7192;DHT22;3637;51.494;11.958;2022-11-27T08:46:25;4.70;99.90
7192;DHT22;3637;51.494;11.958;2022-11-27T08:49:27;4.70;99.90
7192;DHT22;3637;51.494;11.958;2022-11-27T08:52:30;5.20;99.90
7192;DHT22;3637;51.494;11.958;2022-11-27T08:55:32;4.90;99.90
7192;DHT22;3637;51.494;11.958;2022-11-27T08:58:34;5.50;99.90
7192;DHT22;3637;51.494;11.958;2022-11-27T09:01:36;5.10;99.90
7192;DHT22;3637;51.494;11.958;2022-11-27T09:04:38;5.10;99.90
7192;DHT22;3637;51.494;11.958;2022-11-27T09:07:41;5.20;99.90
7192;DHT22;3637;51.494;11.958;2022-11-27T09:10:43;5.30;99.90
7192;DHT22;3637;51.494;11.958;2022-11-27T09:13:45;5.30;99.90
7192;DHT22;3637;51.494;11.958;2022-11-27T09:16:48;5.30;99.90
7192;DHT22;3637;51.494;11.958;2022-11-27T09:19:49;5.30;99.90
7192;DHT22;3637;51.494;11.958;2022-11-27T09:22:53;5.50;99.90
7192;DHT22;3637;51.494;11.958;2022-11-27T09:25:57;5.40;99.90
7192;DHT22;3637;51.494;11.958;2022-11-27T09:28:59;6.60;99.90
7192;DHT22;3637;51.494;11.958;2022-11-27T09:32:02;6.00;99.90
7192;DHT22;3637;51.494;11.958;2022-11-27T09:35:05;5.90;99.90
7192;DHT22;3637;51.494;11.958;2022-11-27T09:38:11;5.80;99.90
7192;DHT22;3637;51.494;11.958;2022-11-27T09:41:43;6.90;99.90
7192;DHT22;3637;51.494;11.958;2022-11-27T09:44:48;6.00;99.90
7192;DHT22;3637;51.494;11.958;2022-11-27T09:47:55;6.00;99.90
7192;DHT22;3637;51.494;11.958;2022-11-27T09:50:59;6.10;99.90
7192;DHT22;3637;51.494;11.958;2022-11-27T09:54:08;6.20;99.90
7192;DHT22;3637;51.494;11.958;2022-11-27T09:57:15;6.70;99.90
7192;DHT22;3637;51.494;11.958;2022-11-27T10:00:21;6.60;99.90
7192;DHT22;3637;51.494;11.958;2022-11-27T10:03:25;6.40;99.90
7192;DHT22;3637;51.494;11.958;2022-11-27T10:06:30;6.60;99.90
7192;DHT22;3637;51.494;11.958;2022-11-27T10:09:45;5.70;99.90
7192;DHT22;3637;51.494;11.958;2022-11-27T10:12:58;6.60;99.90
7192;DHT22;3637;51.494;11.958;2022-11-27T10:16:08;6.40;99.90
7192;DHT22;3637;51.494;11.958;2022-11-27T10:19:21;6.90;99.90
7192;DHT22;3637;51.494;11.958;2022-11-27T10:22:28;7.50;99.90
7192;DHT22;3637;51.494;11.958;2022-11-27T10:25:41;6.80;99.90
7192;DHT22;3637;51.494;11.958;2022-11-27T10:28:52;7.00;99.90
7192;DHT22;3637;51.494;11.958;2022-11-27T10:32:02;6.80;99.90
7192;DHT22;3637;51.494;11.958;2022-11-27T10:35:11;7.00;99.90
7192;DHT22;3637;51.494;11.958;2022-11-27T10:38:16;7.00;99.90
7192;DHT22;3637;51.494;11.958;2022-11-27T10:41:24;7.00;99.90
7192;DHT22;3637;51.494;11.958;2022-11-27T10:44:31;7.90;99.90
7192;DHT22;3637;51.494;11.958;2022-11-27T10:47:33;6.80;99.90
7192;DHT22;3637;51.494;11.958;2022-11-27T10:50:36;7.10;99.90
7192;DHT22;3637;51.494;11.958;2022-11-27T10:53:41;6.90;99.90
7192;DHT22;3637;51.494;11.958;2022-11-27T10:57:01;7.30;99.90
7192;DHT22;3637;51.494;11.958;2022-11-27T11:00:13;7.70;99.90
7192;DHT22;3637;51.494;11.958;2022-11-27T11:03:16;7.30;99.90
7192;DHT22;3637;51.494;11.958;2022-11-27T11:06:22;7.40;99.90
7192;DHT22;3637;51.494;11.958;2022-11-27T11:09:27;7.50;99.90
7192;DHT22;3637;51.494;11.958;2022-11-27T11:12:31;7.60;99.90
7192;DHT22;3637;51.494;11.958;2022-11-27T11:15:33;7.80;99.90
7192;DHT22;3637;51.494;11.958;2022-11-27T11:18:41;8.20;99.90
7192;DHT22;3637;51.494;11.958;2022-11-27T11:21:45;8.40;99.90
7192;DHT22;3637;51.494;11.958;2022-11-27T11:24:50;8.50;99.90
7192;DHT22;3637;51.494;11.958;2022-11-27T11:27:54;8.60;99.90
7192;DHT22;3637;51.494;11.958;2022-11-27T11:31:00;8.70;99.90
7192;DHT22;3637;51.494;11.958;2022-11-27T11:34:17;8.70;99.90
7192;DHT22;3637;51.494;11.958;2022-11-27T11:37:23;8.90;99.90
7192;DHT22;3637;51.494;11.958;2022-11-27T11:40:29;8.60;99.90
7192;DHT22;3637;51.494;11.958;2022-11-27T11:43:34;8.40;99.90
7192;DHT22;3637;51.494;11.958;2022-11-27T11:46:36;8.20;99.90
7192;DHT22;3637;51.494;11.958;2022-11-27T11:49:39;8.10;99.90
7192;DHT22;3637;51.494;11.958;2022-11-27T11:52:48;8.10;99.90
7192;DHT22;3637;51.494;11.958;2022-11-27T11:55:58;8.10;99.90
7192;DHT22;3637;51.494;11.958;2022-11-27T11:59:13;8.30;99.90
7192;DHT22;3637;51.494;11.958;2022-11-27T12:02:32;8.30;99.90
7192;DHT22;3637;51.494;11.958;2022-11-27T12:05:44;8.60;99.90
7192;DHT22;3637;51.494;11.958;2022-11-27T12:09:20;8.30;99.90
7192;DHT22;3637;51.494;11.958;2022-11-27T12:12:37;8.30;99.90
7192;DHT22;3637;51.494;11.958;2022-11-27T12:15:49;8.40;99.90
7192;DHT22;3637;51.494;11.958;2022-11-27T12:19:06;8.60;99.90
7192;DHT22;3637;51.494;11.958;2022-11-27T12:22:21;10.20;99.90
7192;DHT22;3637;51.494;11.958;2022-11-27T12:25:31;9.20;99.90
7192;DHT22;3637;51.494;11.958;2022-11-27T12:28:53;9.30;99.90
7192;DHT22;3637;51.494;11.958;2022-11-27T12:32:21;9.10;99.90
7192;DHT22;3637;51.494;11.958;2022-11-27T12:35:32;9.30;99.90
7192;DHT22;3637;51.494;11.958;2022-11-27T12:38:49;8.90;99.90
7192;DHT22;3637;51.494;11.958;2022-11-27T12:42:00;9.80;99.90
7192;DHT22;3637;51.494;11.958;2022-11-27T12:45:14;9.50;99.90
7192;DHT22;3637;51.494;11.958;2022-11-27T12:48:24;9.00;99.90
7192;DHT22;3637;51.494;11.958;2022-11-27T12:51:30;9.30;99.90
7192;DHT22;3637;51.494;11.958;2022-11-27T12:54:38;9.20;99.90
7192;DHT22;3637;51.494;11.958;2022-11-27T12:57:45;9.00;99.90
7192;DHT22;3637;51.494;11.958;2022-11-27T13:00:48;9.30;99.90
7192;DHT22;3637;51.494;11.958;2022-11-27T13:04:04;8.80;99.90
7192;DHT22;3637;51.494;11.958;2022-11-27T13:07:10;8.60;99.90
7192;DHT22;3637;51.494;11.958;2022-11-27T13:10:19;9.50;99.90
7192;DHT22;3637;51.494;11.958;2022-11-27T13:13:27;8.50;99.90
7192;DHT22;3637;51.494;11.958;2022-11-27T13:16:34;8.20;99.90
7192;DHT22;3637;51.494;11.958;2022-11-27T13:19:42;8.40;99.90
7192;DHT22;3637;51.494;11.958;2022-11-27T13:22:45;8.50;99.90
7192;DHT22;3637;51.494;11.958;2022-11-27T13:25:50;8.30;99.90
7192;DHT22;3637;51.494;11.958;2022-11-27T13:28:56;8.60;99.90
7192;DHT22;3637;51.494;11.958;2022-11-27T13:32:00;8.40;99.90
7192;DHT22;3637;51.494;11.958;2022-11-27T13:35:16;8.50;99.90
7192;DHT22;3637;51.494;11.958;2022-11-27T13:38:22;8.40;99.90
7192;DHT22;3637;51.494;11.958;2022-11-27T13:41:30;8.40;99.90
7192;DHT22;3637;51.494;11.958;2022-11-27T13:44:35;9.80;99.90
7192;DHT22;3637;51.494;11.958;2022-11-27T13:47:41;8.40;99.90
7192;DHT22;3637;51.494;11.958;2022-11-27T13:50:45;8.30;99.90
7192;DHT22;3637;51.494;11.958;2022-11-27T13:53:47;8.40;99.90
7192;DHT22;3637;51.494;11.958;2022-11-27T13:56:49;8.70;99.90
7192;DHT22;3637;51.494;11.958;2022-11-27T13:59:59;8.30;99.90
7192;DHT22;3637;51.494;11.958;2022-11-27T14:03:02;8.30;99.90
7192;DHT22;3637;51.494;11.958;2022-11-27T14:06:16;8.30;99.90
7192;DHT22;3637;51.494;11.958;2022-11-27T14:09:18;8.40;99.90
7192;DHT22;3637;51.494;11.958;2022-11-27T14:12:23;8.40;99.90
7192;DHT22;3637;51.494;11.958;2022-11-27T14:15:27;9.50;99.90
7192;DHT22;3637;51.494;11.958;2022-11-27T14:18:30;8.60;99.90
7192;DHT22;3637;51.494;11.958;2022-11-27T14:21:40;8.20;99.90
7192;DHT22;3637;51.494;11.958;2022-11-27T14:24:43;8.40;99.90
7192;DHT22;3637;51.494;11.958;2022-11-27T14:27:58;8.10;99.90
7192;DHT22;3637;51.494;11.958;2022-11-27T14:31:02;8.00;99.90
7192;DHT22;3637;51.494;11.958;2022-11-27T14:34:04;8.20;99.90
7192;DHT22;3637;51.494;11.958;2022-11-27T14:37:19;8.30;99.90
7192;DHT22;3637;51.494;11.958;2022-11-27T14:40:24;7.90;99.90
7192;DHT22;3637;51.494;11.958;2022-11-27T14:43:29;8.90;99.90
7192;DHT22;3637;51.494;11.958;2022-11-27T14:46:31;7.90;99.90
7192;DHT22;3637;51.494;11.958;2022-11-27T14:49:34;8.00;99.90
7192;DHT22;3637;51.494;11.958;2022-11-27T14:52:37;7.70;99.90
7192;DHT22;3637;51.494;11.958;2022-11-27T14:55:39;7.80;99.90
7192;DHT22;3637;51.494;11.958;2022-11-27T14:58:46;7.70;99.90
7192;DHT22;3637;51.494;11.958;2022-11-27T15:02:00;7.90;99.90
7192;DHT22;3637;51.494;11.958;2022-11-27T15:05:04;7.70;99.90
7192;DHT22;3637;51.494;11.958;2022-11-27T15:08:08;7.70;99.90
7192;DHT22;3637;51.494;11.958;2022-11-27T15:11:14;7.70;99.90
7192;DHT22;3637;51.494;11.958;2022-11-27T15:14:44;7.60;99.90
7192;DHT22;3637;51.494;11.958;2022-11-27T15:18:00;8.30;99.90
7192;DHT22;3637;51.494;11.958;2022-11-27T15:21:08;7.70;99.90
7192;DHT22;3637;51.494;11.958;2022-11-27T15:24:28;7.50;99.90
7192;DHT22;3637;51.494;11.958;2022-11-27T15:27:31;7.50;99.90
7192;DHT22;3637;51.494;11.958;2022-11-27T15:30:42;7.60;99.90
7192;DHT22;3637;51.494;11.958;2022-11-27T15:33:54;7.40;99.90
7192;DHT22;3637;51.494;11.958;2022-11-27T15:36:58;7.50;99.90
7192;DHT22;3637;51.494;11.958;2022-11-27T15:40:13;7.50;99.90
7192;DHT22;3637;51.494;11.958;2022-11-27T15:43:16;7.50;99.90
7192;DHT22;3637;51.494;11.958;2022-11-27T15:46:22;7.40;99.90
7192;DHT22;3637;51.494;11.958;2022-11-27T15:49:25;7.40;99.90
7192;DHT22;3637;51.494;11.958;2022-11-27T15:52:30;7.70;99.90
7192;DHT22;3637;51.494;11.958;2022-11-27T15:55:34;7.30;99.90
7192;DHT22;3637;51.494;11.958;2022-11-27T15:58:36;7.30;99.90
7192;DHT22;3637;51.494;11.958;2022-11-27T16:01:38;7.30;99.90
7192;DHT22;3637;51.494;11.958;2022-11-27T16:04:40;7.30;99.90
7192;DHT22;3637;51.494;11.958;2022-11-27T16:07:42;7.20;99.90
7192;DHT22;3637;51.494;11.958;2022-11-27T16:10:45;7.60;99.90
7192;DHT22;3637;51.494;11.958;2022-11-27T16:13:48;8.50;99.90
7192;DHT22;3637;51.494;11.958;2022-11-27T16:16:50;7.60;99.90
7192;DHT22;3637;51.494;11.958;2022-11-27T16:19:52;7.30;99.90
7192;DHT22;3637;51.494;11.958;2022-11-27T16:22:53;7.20;99.90
7192;DHT22;3637;51.494;11.958;2022-11-27T16:25:57;7.20;99.90
7192;DHT22;3637;51.494;11.958;2022-11-27T16:28:59;8.20;99.90
7192;DHT22;3637;51.494;11.958;2022-11-27T16:32:01;7.00;99.90
7192;DHT22;3637;51.494;11.958;2022-11-27T16:35:03;7.20;99.90
7192;DHT22;3637;51.494;11.958;2022-11-27T16:38:06;7.20;99.90
7192;DHT22;3637;51.494;11.958;2022-11-27T16:41:12;7.20;99.90
7192;DHT22;3637;51.494;11.958;2022-11-27T16:44:14;7.30;99.90
7192;DHT22;3637;51.494;11.958;2022-11-27T16:47:16;7.20;99.90
7192;DHT22;3637;51.494;11.958;2022-11-27T16:50:18;7.20;99.90
7192;DHT22;3637;51.494;11.958;2022-11-27T16:53:20;7.70;99.90
7192;DHT22;3637;51.494;11.958;2022-11-27T16:56:26;7.20;99.90
7192;DHT22;3637;51.494;11.958;2022-11-27T16:59:28;7.90;99.90
7192;DHT22;3637;51.494;11.958;2022-11-27T17:02:30;7.20;99.90
7192;DHT22;3637;51.494;11.958;2022-11-27T17:05:36;7.20;99.90
7192;DHT22;3637;51.494;11.958;2022-11-27T17:08:38;7.10;99.90
7192;DHT22;3637;51.494;11.958;2022-11-27T17:11:43;7.20;99.90
7192;DHT22;3637;51.494;11.958;2022-11-27T17:14:47;7.30;99.90
7192;DHT22;3637;51.494;11.958;2022-11-27T17:17:49;7.60;99.90
7192;DHT22;3637;51.494;11.958;2022-11-27T17:20:59;7.40;99.90
7192;DHT22;3637;51.494;11.958;2022-11-27T17:24:03;7.10;99.90
7192;DHT22;3637;51.494;11.958;2022-11-27T17:27:07;7.10;99.90
7192;DHT22;3637;51.494;11.958;2022-11-27T17:30:09;8.10;99.90
7192;DHT22;3637;51.494;11.958;2022-11-27T17:33:11;7.10;99.90
7192;DHT22;3637;51.494;11.958;2022-11-27T17:36:14;7.40;99.90
7192;DHT22;3637;51.494;11.958;2022-11-27T17:39:16;7.00;99.90
7192;DHT22;3637;51.494;11.958;2022-11-27T17:42:19;7.00;99.90
7192;DHT22;3637;51.494;11.958;2022-11-27T17:45:22;7.20;99.90
7192;DHT22;3637;51.494;11.958;2022-11-27T17:48:24;7.10;99.90
7192;DHT22;3637;51.494;11.958;2022-11-27T17:51:30;7.40;99.90
7192;DHT22;3637;51.494;11.958;2022-11-27T17:54:32;6.90;99.90
7192;DHT22;3637;51.494;11.958;2022-11-27T17:57:36;7.00;99.90
7192;DHT22;3637;51.494;11.958;2022-11-27T18:00:38;6.90;99.90
7192;DHT22;3637;51.494;11.958;2022-11-27T18:03:40;8.10;99.90
7192;DHT22;3637;51.494;11.958;2022-11-27T18:06:42;6.90;99.90
7192;DHT22;3637;51.494;11.958;2022-11-27T18:09:44;7.00;99.90
7192;DHT22;3637;51.494;11.958;2022-11-27T18:12:48;6.90;99.90
7192;DHT22;3637;51.494;11.958;2022-11-27T18:15:50;7.60;99.90
7192;DHT22;3637;51.494;11.958;2022-11-27T18:18:52;7.80;99.90
7192;DHT22;3637;51.494;11.958;2022-11-27T18:21:54;7.30;99.90
7192;DHT22;3637;51.494;11.958;2022-11-27T18:24:56;7.40;99.90
7192;DHT22;3637;51.494;11.958;2022-11-27T18:27:59;7.30;99.90
7192;DHT22;3637;51.494;11.958;2022-11-27T18:31:06;6.90;99.90
7192;DHT22;3637;51.494;11.958;2022-11-27T18:34:08;7.70;99.90
7192;DHT22;3637;51.494;11.958;2022-11-27T18:37:11;7.00;99.90
7192;DHT22;3637;51.494;11.958;2022-11-27T18:40:13;7.20;99.90
7192;DHT22;3637;51.494;11.958;2022-11-27T18:43:16;6.70;99.90
7192;DHT22;3637;51.494;11.958;2022-11-27T18:46:18;6.70;99.90
7192;DHT22;3637;51.494;11.958;2022-11-27T18:49:20;7.30;99.90
7192;DHT22;3637;51.494;11.958;2022-11-27T18:52:23;7.00;99.90
7192;DHT22;3637;51.494;11.958;2022-11-27T18:55:25;6.70;99.90
7192;DHT22;3637;51.494;11.958;2022-11-27T18:58:30;6.80;99.90
7192;DHT22;3637;51.494;11.958;2022-11-27T19:01:36;7.50;99.90
7192;DHT22;3637;51.494;11.958;2022-11-27T19:04:38;6.80;99.90
7192;DHT22;3637;51.494;11.958;2022-11-27T19:07:42;6.80;99.90
7192;DHT22;3637;51.494;11.958;2022-11-27T19:10:44;6.80;99.90
7192;DHT22;3637;51.494;11.958;2022-11-27T19:13:47;6.70;99.90
7192;DHT22;3637;51.494;11.958;2022-11-27T19:16:50;6.80;99.90
7192;DHT22;3637;51.494;11.958;2022-11-27T19:19:52;6.70;99.90
7192;DHT22;3637;51.494;11.958;2022-11-27T19:22:54;7.70;99.90
7192;DHT22;3637;51.494;11.958;2022-11-27T19:25:56;6.90;99.90
7192;DHT22;3637;51.494;11.958;2022-11-27T19:29:01;6.70;99.90
7192;DHT22;3637;51.494;11.958;2022-11-27T19:32:05;6.90;99.90
7192;DHT22;3637;51.494;11.958;2022-11-27T19:35:07;7.10;99.90
7192;DHT22;3637;51.494;11.958;2022-11-27T19:38:09;6.60;99.90
7192;DHT22;3637;51.494;11.958;2022-11-27T19:41:13;6.70;99.90
7192;DHT22;3637;51.494;11.958;2022-11-27T19:44:17;6.60;99.90
7192;DHT22;3637;51.494;11.958;2022-11-27T19:47:19;6.60;99.90
7192;DHT22;3637;51.494;11.958;2022-11-27T19:50:21;6.80;99.90
7192;DHT22;3637;51.494;11.958;2022-11-27T19:53:23;6.60;99.90
7192;DHT22;3637;51.494;11.958;2022-11-27T19:56:29;7.00;99.90
7192;DHT22;3637;51.494;11.958;2022-11-27T19:59:34;6.60;99.90
7192;DHT22;3637;51.494;11.958;2022-11-27T20:02:37;6.60;99.90
7192;DHT22;3637;51.494;11.958;2022-11-27T20:05:39;6.60;99.90
7192;DHT22;3637;51.494;11.958;2022-11-27T20:08:42;6.50;99.90
7192;DHT22;3637;51.494;11.958;2022-11-27T20:11:44;6.60;99.90